sensor_id;sensor_type;location;lat;lon;timestamp;P1;durP1;ratioP1;P2;durP2;ratioP2
25435;SDS011;13363;52.772;-3.890;2023-02-10T00:01:11;4.80;;;3.00;;
25435;SDS011;13363;52.772;-3.890;2023-02-10T00:03:39;6.00;;;3.10;;
25435;SDS011;13363;52.772;-3.890;2023-02-10T00:06:05;3.80;;;3.10;;
25435;SDS011;13363;52.772;-3.890;2023-02-10T00:08:32;9.80;;;2.73;;
25435;SDS011;13363;52.772;-3.890;2023-02-10T00:10:59;3.23;;;2.43;;
25435;SDS011;13363;52.772;-3.890;2023-02-10T00:13:27;6.00;;;3.00;;
25435;SDS011;13363;52.772;-3.890;2023-02-10T00:15:53;6.80;;;2.87;;
25435;SDS011;13363;52.772;-3.890;2023-02-10T00:18:19;2.43;;;2.20;;
25435;SDS011;13363;52.772;-3.890;2023-02-10T00:20:45;4.17;;;2.90;;
25435;SDS011;13363;52.772;-3.890;2023-02-10T00:23:11;6.53;;;3.13;;
25435;SDS011;13363;52.772;-3.890;2023-02-10T00:25:37;6.50;;;2.60;;
25435;SDS011;13363;52.772;-3.890;2023-02-10T00:28:03;7.97;;;2.53;;
25435;SDS011;13363;52.772;-3.890;2023-02-10T00:30:30;4.43;;;2.63;;
25435;SDS011;13363;52.772;-3.890;2023-02-10T00:32:56;7.80;;;2.50;;
25435;SDS011;13363;52.772;-3.890;2023-02-10T00:35:22;14.50;;;3.13;;
25435;SDS011;13363;52.772;-3.890;2023-02-10T00:37:48;6.13;;;2.50;;
25435;SDS011;13363;52.772;-3.890;2023-02-10T00:40:14;4.03;;;3.20;;
25435;SDS011;13363;52.772;-3.890;2023-02-10T00:42:40;5.00;;;2.67;;
25435;SDS011;13363;52.772;-3.890;2023-02-10T00:45:06;5.23;;;2.77;;
25435;SDS011;13363;52.772;-3.890;2023-02-10T00:47:33;9.93;;;2.67;;
25435;SDS011;13363;52.772;-3.890;2023-02-10T00:49:58;6.37;;;2.57;;
25435;SDS011;13363;52.772;-3.890;2023-02-10T00:52:25;4.27;;;2.33;;
25435;SDS011;13363;52.772;-3.890;2023-02-10T00:54:50;6.67;;;2.30;;
25435;SDS011;13363;52.772;-3.890;2023-02-10T00:57:16;5.67;;;2.30;;
25435;SDS011;13363;52.772;-3.890;2023-02-10T00:59:42;7.27;;;2.73;;
25435;SDS011;13363;52.772;-3.890;2023-02-10T01:02:08;10.23;;;2.83;;
25435;SDS011;13363;52.772;-3.890;2023-02-10T01:04:34;10.10;;;2.90;;
25435;SDS011;13363;52.772;-3.890;2023-02-10T01:07:00;5.43;;;2.43;;
25435;SDS011;13363;52.772;-3.890;2023-02-10T01:09:26;9.73;;;3.13;;
25435;SDS011;13363;52.772;-3.890;2023-02-10T01:11:52;5.90;;;2.97;;
25435;SDS011;13363;52.772;-3.890;2023-02-10T01:14:17;10.37;;;2.80;;
25435;SDS011;13363;52.772;-3.890;2023-02-10T01:16:43;8.57;;;2.73;;
25435;SDS011;13363;52.772;-3.890;2023-02-10T01:19:09;7.90;;;2.80;;
25435;SDS011;13363;52.772;-3.890;2023-02-10T01:21:35;6.30;;;2.80;;
25435;SDS011;13363;52.772;-3.890;2023-02-10T01:24:03;7.07;;;3.07;;
25435;SDS011;13363;52.772;-3.890;2023-02-10T01:26:33;9.03;;;2.87;;
25435;SDS011;13363;52.772;-3.890;2023-02-10T01:28:59;6.10;;;3.33;;
25435;SDS011;13363;52.772;-3.890;2023-02-10T01:31:25;9.07;;;2.70;;
25435;SDS011;13363;52.772;-3.890;2023-02-10T01:33:51;6.40;;;3.13;;
25435;SDS011;13363;52.772;-3.890;2023-02-10T01:36:20;8.93;;;2.90;;
25435;SDS011;13363;52.772;-3.890;2023-02-10T01:38:47;10.37;;;2.77;;
25435;SDS011;13363;52.772;-3.890;2023-02-10T01:41:15;5.07;;;2.50;;
25435;SDS011;13363;52.772;-3.890;2023-02-10T01:43:53;7.87;;;2.67;;
25435;SDS011;13363;52.772;-3.890;2023-02-10T01:46:22;3.07;;;2.07;;
25435;SDS011;13363;52.772;-3.890;2023-02-10T01:48:48;6.97;;;2.10;;
25435;SDS011;13363;52.772;-3.890;2023-02-10T01:51:15;9.87;;;3.37;;
25435;SDS011;13363;52.772;-3.890;2023-02-10T01:53:44;10.73;;;2.33;;
25435;SDS011;13363;52.772;-3.890;2023-02-10T01:56:10;6.73;;;2.57;;
25435;SDS011;13363;52.772;-3.890;2023-02-10T01:58:40;3.73;;;1.87;;
25435;SDS011;13363;52.772;-3.890;2023-02-10T02:01:06;10.27;;;2.60;;
25435;SDS011;13363;52.772;-3.890;2023-02-10T02:03:32;5.63;;;2.20;;
25435;SDS011;13363;52.772;-3.890;2023-02-10T02:05:59;6.13;;;2.50;;
25435;SDS011;13363;52.772;-3.890;2023-02-10T02:08:26;3.07;;;1.80;;
25435;SDS011;13363;52.772;-3.890;2023-02-10T02:13:32;7.87;;;2.40;;
25435;SDS011;13363;52.772;-3.890;2023-02-10T02:16:30;8.10;;;2.30;;
25435;SDS011;13363;52.772;-3.890;2023-02-10T02:19:20;10.23;;;2.93;;
25435;SDS011;13363;52.772;-3.890;2023-02-10T02:30:43;6.50;;;2.00;;
25435;SDS011;13363;52.772;-3.890;2023-02-10T02:33:30;3.50;;;1.73;;
25435;SDS011;13363;52.772;-3.890;2023-02-10T02:36:18;4.00;;;2.10;;
25435;SDS011;13363;52.772;-3.890;2023-02-10T02:38:58;3.70;;;2.03;;
25435;SDS011;13363;52.772;-3.890;2023-02-10T02:41:29;3.67;;;2.20;;
25435;SDS011;13363;52.772;-3.890;2023-02-10T02:43:56;5.73;;;1.67;;
25435;SDS011;13363;52.772;-3.890;2023-02-10T02:54:42;6.90;;;2.30;;
25435;SDS011;13363;52.772;-3.890;2023-02-10T03:00:00;4.33;;;1.90;;
25435;SDS011;13363;52.772;-3.890;2023-02-10T03:02:30;9.00;;;2.20;;
25435;SDS011;13363;52.772;-3.890;2023-02-10T03:04:58;4.90;;;2.03;;
25435;SDS011;13363;52.772;-3.890;2023-02-10T03:07:24;13.60;;;3.07;;
25435;SDS011;13363;52.772;-3.890;2023-02-10T03:09:50;4.73;;;2.20;;
25435;SDS011;13363;52.772;-3.890;2023-02-10T03:12:16;11.80;;;2.40;;
25435;SDS011;13363;52.772;-3.890;2023-02-10T03:14:42;6.87;;;2.33;;
25435;SDS011;13363;52.772;-3.890;2023-02-10T03:17:08;7.00;;;2.00;;
25435;SDS011;13363;52.772;-3.890;2023-02-10T03:19:34;10.70;;;1.90;;
25435;SDS011;13363;52.772;-3.890;2023-02-10T03:22:00;8.00;;;2.00;;
25435;SDS011;13363;52.772;-3.890;2023-02-10T03:24:26;5.60;;;2.40;;
25435;SDS011;13363;52.772;-3.890;2023-02-10T03:26:51;8.30;;;2.23;;
25435;SDS011;13363;52.772;-3.890;2023-02-10T03:29:17;11.93;;;2.30;;
25435;SDS011;13363;52.772;-3.890;2023-02-10T03:31:43;9.73;;;1.87;;
25435;SDS011;13363;52.772;-3.890;2023-02-10T03:34:09;7.23;;;1.93;;
25435;SDS011;13363;52.772;-3.890;2023-02-10T03:36:36;9.20;;;2.23;;
25435;SDS011;13363;52.772;-3.890;2023-02-10T03:39:02;6.33;;;1.77;;
25435;SDS011;13363;52.772;-3.890;2023-02-10T03:41:29;6.07;;;1.90;;
25435;SDS011;13363;52.772;-3.890;2023-02-10T03:43:55;5.37;;;2.10;;
25435;SDS011;13363;52.772;-3.890;2023-02-10T03:46:21;6.07;;;1.80;;
25435;SDS011;13363;52.772;-3.890;2023-02-10T03:48:47;2.20;;;1.37;;
25435;SDS011;13363;52.772;-3.890;2023-02-10T03:51:13;3.53;;;1.40;;
25435;SDS011;13363;52.772;-3.890;2023-02-10T03:53:39;10.43;;;1.60;;
25435;SDS011;13363;52.772;-3.890;2023-02-10T03:56:05;5.10;;;1.90;;
25435;SDS011;13363;52.772;-3.890;2023-02-10T03:58:31;5.27;;;1.83;;
25435;SDS011;13363;52.772;-3.890;2023-02-10T04:00:58;6.23;;;1.87;;
25435;SDS011;13363;52.772;-3.890;2023-02-10T04:03:24;6.10;;;2.50;;
25435;SDS011;13363;52.772;-3.890;2023-02-10T04:05:50;4.97;;;1.87;;
25435;SDS011;13363;52.772;-3.890;2023-02-10T04:08:16;8.53;;;2.33;;
25435;SDS011;13363;52.772;-3.890;2023-02-10T04:10:42;6.07;;;1.83;;
25435;SDS011;13363;52.772;-3.890;2023-02-10T04:13:08;4.33;;;2.00;;
25435;SDS011;13363;52.772;-3.890;2023-02-10T04:15:38;5.77;;;2.07;;
25435;SDS011;13363;52.772;-3.890;2023-02-10T04:18:04;4.60;;;1.80;;
25435;SDS011;13363;52.772;-3.890;2023-02-10T04:20:30;6.10;;;2.23;;
25435;SDS011;13363;52.772;-3.890;2023-02-10T04:22:56;3.43;;;1.57;;
25435;SDS011;13363;52.772;-3.890;2023-02-10T04:25:22;5.13;;;2.10;;
25435;SDS011;13363;52.772;-3.890;2023-02-10T04:27:48;7.23;;;1.63;;
25435;SDS011;13363;52.772;-3.890;2023-02-10T04:30:13;6.93;;;1.70;;
25435;SDS011;13363;52.772;-3.890;2023-02-10T04:32:39;10.50;;;2.00;;
25435;SDS011;13363;52.772;-3.890;2023-02-10T04:35:05;10.27;;;2.23;;
25435;SDS011;13363;52.772;-3.890;2023-02-10T04:37:31;4.67;;;1.97;;
25435;SDS011;13363;52.772;-3.890;2023-02-10T04:39:57;14.23;;;2.50;;
25435;SDS011;13363;52.772;-3.890;2023-02-10T04:42:23;9.43;;;2.37;;
25435;SDS011;13363;52.772;-3.890;2023-02-10T04:44:55;5.83;;;1.80;;
25435;SDS011;13363;52.772;-3.890;2023-02-10T04:47:25;11.47;;;2.23;;
25435;SDS011;13363;52.772;-3.890;2023-02-10T04:49:52;7.23;;;2.10;;
25435;SDS011;13363;52.772;-3.890;2023-02-10T04:52:18;5.33;;;1.87;;
25435;SDS011;13363;52.772;-3.890;2023-02-10T04:54:44;8.93;;;1.70;;
25435;SDS011;13363;52.772;-3.890;2023-02-10T04:57:10;10.17;;;2.10;;
25435;SDS011;13363;52.772;-3.890;2023-02-10T04:59:35;5.27;;;1.87;;
25435;SDS011;13363;52.772;-3.890;2023-02-10T05:02:01;8.97;;;1.87;;
25435;SDS011;13363;52.772;-3.890;2023-02-10T05:04:27;7.07;;;1.43;;
25435;SDS011;13363;52.772;-3.890;2023-02-10T05:06:53;7.20;;;2.00;;
25435;SDS011;13363;52.772;-3.890;2023-02-10T05:09:23;6.67;;;2.03;;
25435;SDS011;13363;52.772;-3.890;2023-02-10T05:11:49;10.87;;;2.30;;
25435;SDS011;13363;52.772;-3.890;2023-02-10T05:14:15;2.67;;;1.50;;
25435;SDS011;13363;52.772;-3.890;2023-02-10T05:16:41;3.43;;;1.60;;
25435;SDS011;13363;52.772;-3.890;2023-02-10T05:19:07;8.70;;;2.17;;
25435;SDS011;13363;52.772;-3.890;2023-02-10T05:21:34;5.07;;;2.00;;
25435;SDS011;13363;52.772;-3.890;2023-02-10T05:24:00;5.93;;;2.27;;
25435;SDS011;13363;52.772;-3.890;2023-02-10T05:26:26;7.20;;;2.33;;
25435;SDS011;13363;52.772;-3.890;2023-02-10T05:28:53;8.13;;;2.40;;
25435;SDS011;13363;52.772;-3.890;2023-02-10T05:31:19;5.60;;;1.60;;
25435;SDS011;13363;52.772;-3.890;2023-02-10T05:33:45;7.17;;;1.63;;
25435;SDS011;13363;52.772;-3.890;2023-02-10T05:36:11;15.33;;;2.53;;
25435;SDS011;13363;52.772;-3.890;2023-02-10T05:38:36;8.17;;;1.83;;
25435;SDS011;13363;52.772;-3.890;2023-02-10T05:41:02;5.60;;;1.77;;
25435;SDS011;13363;52.772;-3.890;2023-02-10T05:43:28;5.00;;;2.53;;
25435;SDS011;13363;52.772;-3.890;2023-02-10T05:45:54;8.10;;;1.70;;
25435;SDS011;13363;52.772;-3.890;2023-02-10T05:48:20;7.53;;;2.00;;
25435;SDS011;13363;52.772;-3.890;2023-02-10T05:50:49;5.03;;;2.30;;
25435;SDS011;13363;52.772;-3.890;2023-02-10T05:53:16;11.73;;;2.20;;
25435;SDS011;13363;52.772;-3.890;2023-02-10T05:55:44;0.87;;;0.87;;
25435;SDS011;13363;52.772;-3.890;2023-02-10T05:58:10;5.17;;;1.50;;
25435;SDS011;13363;52.772;-3.890;2023-02-10T06:00:36;6.07;;;2.33;;
25435;SDS011;13363;52.772;-3.890;2023-02-10T06:03:02;6.43;;;1.93;;
25435;SDS011;13363;52.772;-3.890;2023-02-10T06:05:28;6.20;;;1.73;;
25435;SDS011;13363;52.772;-3.890;2023-02-10T06:07:54;9.27;;;1.90;;
25435;SDS011;13363;52.772;-3.890;2023-02-10T06:10:20;9.53;;;2.40;;
25435;SDS011;13363;52.772;-3.890;2023-02-10T06:12:47;3.60;;;1.10;;
25435;SDS011;13363;52.772;-3.890;2023-02-10T06:15:13;9.27;;;2.63;;
25435;SDS011;13363;52.772;-3.890;2023-02-10T06:17:39;4.17;;;1.27;;
25435;SDS011;13363;52.772;-3.890;2023-02-10T06:20:05;7.00;;;1.97;;
25435;SDS011;13363;52.772;-3.890;2023-02-10T06:22:31;11.90;;;1.60;;
25435;SDS011;13363;52.772;-3.890;2023-02-10T06:24:56;2.60;;;1.10;;
25435;SDS011;13363;52.772;-3.890;2023-02-10T06:27:22;7.83;;;2.27;;
25435;SDS011;13363;52.772;-3.890;2023-02-10T06:29:48;7.60;;;1.50;;
25435;SDS011;13363;52.772;-3.890;2023-02-10T06:32:14;2.50;;;1.33;;
25435;SDS011;13363;52.772;-3.890;2023-02-10T06:34:40;4.50;;;1.70;;
25435;SDS011;13363;52.772;-3.890;2023-02-10T06:37:06;6.90;;;1.57;;
25435;SDS011;13363;52.772;-3.890;2023-02-10T06:39:32;7.97;;;1.70;;
25435;SDS011;13363;52.772;-3.890;2023-02-10T06:41:57;8.10;;;2.17;;
25435;SDS011;13363;52.772;-3.890;2023-02-10T06:44:24;5.03;;;1.90;;
25435;SDS011;13363;52.772;-3.890;2023-02-10T06:46:50;5.53;;;1.83;;
25435;SDS011;13363;52.772;-3.890;2023-02-10T06:49:16;6.83;;;1.73;;
25435;SDS011;13363;52.772;-3.890;2023-02-10T06:51:42;8.70;;;1.73;;
25435;SDS011;13363;52.772;-3.890;2023-02-10T06:54:07;4.43;;;2.13;;
25435;SDS011;13363;52.772;-3.890;2023-02-10T06:56:33;4.27;;;1.70;;
25435;SDS011;13363;52.772;-3.890;2023-02-10T06:58:59;7.07;;;2.40;;
25435;SDS011;13363;52.772;-3.890;2023-02-10T07:01:25;7.00;;;1.93;;
25435;SDS011;13363;52.772;-3.890;2023-02-10T07:03:51;4.37;;;2.10;;
25435;SDS011;13363;52.772;-3.890;2023-02-10T07:06:17;4.80;;;1.63;;
25435;SDS011;13363;52.772;-3.890;2023-02-10T07:08:43;6.17;;;2.67;;
25435;SDS011;13363;52.772;-3.890;2023-02-10T07:11:10;6.97;;;1.50;;
25435;SDS011;13363;52.772;-3.890;2023-02-10T07:13:36;8.20;;;2.17;;
25435;SDS011;13363;52.772;-3.890;2023-02-10T07:16:02;6.40;;;1.93;;
25435;SDS011;13363;52.772;-3.890;2023-02-10T07:18:27;12.50;;;2.40;;
25435;SDS011;13363;52.772;-3.890;2023-02-10T07:20:55;8.63;;;1.53;;
25435;SDS011;13363;52.772;-3.890;2023-02-10T07:23:21;5.30;;;1.70;;
25435;SDS011;13363;52.772;-3.890;2023-02-10T07:25:46;7.93;;;1.90;;
25435;SDS011;13363;52.772;-3.890;2023-02-10T07:28:12;6.83;;;2.23;;
25435;SDS011;13363;52.772;-3.890;2023-02-10T07:30:38;9.40;;;1.90;;
25435;SDS011;13363;52.772;-3.890;2023-02-10T07:33:04;10.20;;;2.20;;
25435;SDS011;13363;52.772;-3.890;2023-02-10T07:35:30;8.50;;;1.73;;
25435;SDS011;13363;52.772;-3.890;2023-02-10T07:37:55;3.63;;;1.83;;
25435;SDS011;13363;52.772;-3.890;2023-02-10T07:40:21;9.07;;;2.23;;
25435;SDS011;13363;52.772;-3.890;2023-02-10T07:42:47;6.77;;;1.83;;
25435;SDS011;13363;52.772;-3.890;2023-02-10T07:45:13;8.97;;;2.27;;
25435;SDS011;13363;52.772;-3.890;2023-02-10T07:47:39;7.27;;;2.17;;
25435;SDS011;13363;52.772;-3.890;2023-02-10T07:50:05;7.50;;;1.80;;
25435;SDS011;13363;52.772;-3.890;2023-02-10T07:52:31;4.83;;;1.57;;
25435;SDS011;13363;52.772;-3.890;2023-02-10T07:54:56;7.97;;;1.80;;
25435;SDS011;13363;52.772;-3.890;2023-02-10T07:57:23;7.27;;;2.10;;
25435;SDS011;13363;52.772;-3.890;2023-02-10T07:59:50;4.60;;;1.63;;
25435;SDS011;13363;52.772;-3.890;2023-02-10T08:02:15;8.93;;;2.27;;
25435;SDS011;13363;52.772;-3.890;2023-02-10T08:04:41;6.47;;;1.90;;
25435;SDS011;13363;52.772;-3.890;2023-02-10T08:07:07;2.23;;;0.90;;
25435;SDS011;13363;52.772;-3.890;2023-02-10T08:09:33;1.30;;;0.97;;
25435;SDS011;13363;52.772;-3.890;2023-02-10T08:11:59;6.90;;;2.37;;
25435;SDS011;13363;52.772;-3.890;2023-02-10T08:14:25;5.63;;;1.60;;
25435;SDS011;13363;52.772;-3.890;2023-02-10T08:16:50;5.23;;;1.50;;
25435;SDS011;13363;52.772;-3.890;2023-02-10T08:19:16;7.47;;;1.80;;
25435;SDS011;13363;52.772;-3.890;2023-02-10T08:21:42;7.03;;;1.67;;
25435;SDS011;13363;52.772;-3.890;2023-02-10T08:24:08;7.43;;;2.13;;
25435;SDS011;13363;52.772;-3.890;2023-02-10T08:26:34;7.60;;;1.60;;
25435;SDS011;13363;52.772;-3.890;2023-02-10T08:29:00;11.90;;;2.03;;
25435;SDS011;13363;52.772;-3.890;2023-02-10T08:31:26;10.03;;;1.87;;
25435;SDS011;13363;52.772;-3.890;2023-02-10T08:33:52;7.07;;;1.90;;
25435;SDS011;13363;52.772;-3.890;2023-02-10T08:36:18;10.27;;;2.13;;
25435;SDS011;13363;52.772;-3.890;2023-02-10T08:38:46;12.47;;;1.70;;
25435;SDS011;13363;52.772;-3.890;2023-02-10T08:41:13;3.57;;;1.07;;
25435;SDS011;13363;52.772;-3.890;2023-02-10T08:43:40;5.23;;;1.40;;
25435;SDS011;13363;52.772;-3.890;2023-02-10T08:46:06;4.73;;;1.40;;
25435;SDS011;13363;52.772;-3.890;2023-02-10T08:48:32;0.97;;;0.73;;
25435;SDS011;13363;52.772;-3.890;2023-02-10T08:50:58;4.83;;;1.33;;
25435;SDS011;13363;52.772;-3.890;2023-02-10T08:53:24;4.17;;;0.87;;
25435;SDS011;13363;52.772;-3.890;2023-02-10T08:55:58;7.97;;;1.47;;
25435;SDS011;13363;52.772;-3.890;2023-02-10T08:58:25;6.83;;;2.00;;
25435;SDS011;13363;52.772;-3.890;2023-02-10T09:00:51;4.93;;;0.80;;
25435;SDS011;13363;52.772;-3.890;2023-02-10T09:03:17;7.27;;;1.67;;
25435;SDS011;13363;52.772;-3.890;2023-02-10T09:05:43;4.30;;;1.33;;
25435;SDS011;13363;52.772;-3.890;2023-02-10T09:08:11;4.13;;;1.13;;
25435;SDS011;13363;52.772;-3.890;2023-02-10T09:10:41;4.83;;;1.27;;
25435;SDS011;13363;52.772;-3.890;2023-02-10T09:13:08;10.50;;;1.60;;
25435;SDS011;13363;52.772;-3.890;2023-02-10T09:15:37;3.93;;;1.37;;
25435;SDS011;13363;52.772;-3.890;2023-02-10T09:18:05;2.13;;;1.20;;
25435;SDS011;13363;52.772;-3.890;2023-02-10T09:20:31;8.33;;;1.80;;
25435;SDS011;13363;52.772;-3.890;2023-02-10T09:22:57;7.40;;;1.57;;
25435;SDS011;13363;52.772;-3.890;2023-02-10T09:25:23;4.70;;;1.90;;
25435;SDS011;13363;52.772;-3.890;2023-02-10T09:27:50;6.57;;;2.30;;
25435;SDS011;13363;52.772;-3.890;2023-02-10T09:30:18;3.13;;;1.43;;
25435;SDS011;13363;52.772;-3.890;2023-02-10T09:32:44;6.63;;;1.47;;
25435;SDS011;13363;52.772;-3.890;2023-02-10T09:35:09;7.27;;;1.60;;
25435;SDS011;13363;52.772;-3.890;2023-02-10T09:37:35;10.43;;;1.60;;
25435;SDS011;13363;52.772;-3.890;2023-02-10T09:40:01;3.17;;;0.93;;
25435;SDS011;13363;52.772;-3.890;2023-02-10T09:45:11;6.00;;;1.67;;
25435;SDS011;13363;52.772;-3.890;2023-02-10T09:47:50;10.67;;;1.90;;
25435;SDS011;13363;52.772;-3.890;2023-02-10T09:56:20;2.93;;;1.20;;
25435;SDS011;13363;52.772;-3.890;2023-02-10T09:58:53;6.23;;;1.07;;
25435;SDS011;13363;52.772;-3.890;2023-02-10T10:04:20;5.20;;;1.73;;
25435;SDS011;13363;52.772;-3.890;2023-02-10T10:06:51;2.60;;;0.83;;
25435;SDS011;13363;52.772;-3.890;2023-02-10T10:09:43;7.20;;;1.53;;
25435;SDS011;13363;52.772;-3.890;2023-02-10T10:12:16;5.33;;;0.93;;
25435;SDS011;13363;52.772;-3.890;2023-02-10T10:14:44;1.77;;;0.90;;
25435;SDS011;13363;52.772;-3.890;2023-02-10T10:20:11;1.37;;;0.70;;
25435;SDS011;13363;52.772;-3.890;2023-02-10T10:33:38;0.47;;;0.47;;
25435;SDS011;13363;52.772;-3.890;2023-02-10T10:36:15;1.03;;;0.77;;
25435;SDS011;13363;52.772;-3.890;2023-02-10T10:38:51;1.27;;;0.50;;
25435;SDS011;13363;52.772;-3.890;2023-02-10T10:41:20;0.33;;;0.33;;
25435;SDS011;13363;52.772;-3.890;2023-02-10T10:43:53;1.80;;;0.50;;
25435;SDS011;13363;52.772;-3.890;2023-02-10T10:48:49;1.03;;;0.40;;
25435;SDS011;13363;52.772;-3.890;2023-02-10T10:51:15;0.43;;;0.43;;
25435;SDS011;13363;52.772;-3.890;2023-02-10T10:53:55;0.97;;;0.30;;
25435;SDS011;13363;52.772;-3.890;2023-02-10T10:59:16;0.30;;;0.30;;
25435;SDS011;13363;52.772;-3.890;2023-02-10T11:01:52;0.10;;;0.10;;
25435;SDS011;13363;52.772;-3.890;2023-02-10T11:04:19;0.03;;;0.03;;
25435;SDS011;13363;52.772;-3.890;2023-02-10T11:06:48;0.77;;;0.10;;
25435;SDS011;13363;52.772;-3.890;2023-02-10T11:09:21;0.20;;;0.20;;
25435;SDS011;13363;52.772;-3.890;2023-02-10T11:12:01;0.33;;;0.33;;
25435;SDS011;13363;52.772;-3.890;2023-02-10T11:14:41;2.43;;;0.60;;
25435;SDS011;13363;52.772;-3.890;2023-02-10T11:17:42;0.27;;;0.27;;
25435;SDS011;13363;52.772;-3.890;2023-02-10T11:23:27;1.37;;;0.40;;
25435;SDS011;13363;52.772;-3.890;2023-02-10T11:26:04;2.23;;;0.30;;
25435;SDS011;13363;52.772;-3.890;2023-02-10T11:28:32;0.10;;;0.10;;
25435;SDS011;13363;52.772;-3.890;2023-02-10T11:31:16;2.53;;;0.80;;
25435;SDS011;13363;52.772;-3.890;2023-02-10T11:36:37;0.20;;;0.20;;
25435;SDS011;13363;52.772;-3.890;2023-02-10T11:39:06;1.50;;;0.40;;
25435;SDS011;13363;52.772;-3.890;2023-02-10T11:41:44;0.67;;;0.30;;
25435;SDS011;13363;52.772;-3.890;2023-02-10T11:44:30;0.83;;;0.57;;
25435;SDS011;13363;52.772;-3.890;2023-02-10T11:46:58;0.40;;;0.40;;
25435;SDS011;13363;52.772;-3.890;2023-02-10T11:49:31;0.73;;;0.57;;
25435;SDS011;13363;52.772;-3.890;2023-02-10T11:51:59;2.07;;;0.97;;
25435;SDS011;13363;52.772;-3.890;2023-02-10T11:54:28;2.13;;;1.13;;
25435;SDS011;13363;52.772;-3.890;2023-02-10T11:57:03;1.00;;;1.00;;
25435;SDS011;13363;52.772;-3.890;2023-02-10T12:11:26;1.33;;;1.23;;
25435;SDS011;13363;52.772;-3.890;2023-02-10T12:16:43;4.87;;;1.63;;
25435;SDS011;13363;52.772;-3.890;2023-02-10T12:22:02;3.33;;;1.27;;
25435;SDS011;13363;52.772;-3.890;2023-02-10T12:24:41;1.90;;;1.80;;
25435;SDS011;13363;52.772;-3.890;2023-02-10T12:27:41;1.33;;;1.13;;
25435;SDS011;13363;52.772;-3.890;2023-02-10T12:30:28;2.50;;;1.63;;
25435;SDS011;13363;52.772;-3.890;2023-02-10T12:36:07;1.07;;;1.07;;
25435;SDS011;13363;52.772;-3.890;2023-02-10T12:44:45;1.57;;;1.20;;
25435;SDS011;13363;52.772;-3.890;2023-02-10T12:47:26;1.37;;;0.70;;
25435;SDS011;13363;52.772;-3.890;2023-02-10T12:52:29;0.83;;;0.60;;
25435;SDS011;13363;52.772;-3.890;2023-02-10T12:55:12;1.20;;;1.10;;
25435;SDS011;13363;52.772;-3.890;2023-02-10T13:00:33;1.10;;;1.00;;
25435;SDS011;13363;52.772;-3.890;2023-02-10T13:03:20;4.57;;;1.40;;
25435;SDS011;13363;52.772;-3.890;2023-02-10T13:05:57;2.77;;;1.30;;
25435;SDS011;13363;52.772;-3.890;2023-02-10T13:08:37;1.03;;;1.03;;
25435;SDS011;13363;52.772;-3.890;2023-02-10T13:14:19;4.97;;;2.13;;
25435;SDS011;13363;52.772;-3.890;2023-02-10T13:16:55;5.50;;;2.10;;
25435;SDS011;13363;52.772;-3.890;2023-02-10T13:27:26;4.13;;;2.30;;
25435;SDS011;13363;52.772;-3.890;2023-02-10T13:36:16;1.43;;;1.33;;
25435;SDS011;13363;52.772;-3.890;2023-02-10T13:38:45;3.40;;;1.50;;
25435;SDS011;13363;52.772;-3.890;2023-02-10T13:41:23;1.40;;;1.30;;
25435;SDS011;13363;52.772;-3.890;2023-02-10T13:44:25;0.97;;;0.97;;
25435;SDS011;13363;52.772;-3.890;2023-02-10T13:49:53;0.57;;;0.57;;
25435;SDS011;13363;52.772;-3.890;2023-02-10T13:52:27;0.83;;;0.83;;
25435;SDS011;13363;52.772;-3.890;2023-02-10T13:57:37;0.80;;;0.80;;
25435;SDS011;13363;52.772;-3.890;2023-02-10T14:00:15;0.60;;;0.60;;
25435;SDS011;13363;52.772;-3.890;2023-02-10T14:05:35;0.60;;;0.60;;
25435;SDS011;13363;52.772;-3.890;2023-02-10T14:08:25;0.50;;;0.50;;
25435;SDS011;13363;52.772;-3.890;2023-02-10T14:10:58;0.40;;;0.40;;
25435;SDS011;13363;52.772;-3.890;2023-02-10T14:13:29;2.00;;;0.57;;
25435;SDS011;13363;52.772;-3.890;2023-02-10T14:16:04;0.20;;;0.20;;
25435;SDS011;13363;52.772;-3.890;2023-02-10T14:18:36;0.80;;;0.80;;
25435;SDS011;13363;52.772;-3.890;2023-02-10T14:21:10;0.10;;;0.10;;
25435;SDS011;13363;52.772;-3.890;2023-02-10T14:23:49;0.83;;;0.30;;
25435;SDS011;13363;52.772;-3.890;2023-02-10T14:26:19;0.87;;;0.10;;
25435;SDS011;13363;52.772;-3.890;2023-02-10T14:28:58;0.13;;;0.13;;
25435;SDS011;13363;52.772;-3.890;2023-02-10T14:31:32;0.20;;;0.20;;
25435;SDS011;13363;52.772;-3.890;2023-02-10T14:37:17;0.60;;;0.27;;
25435;SDS011;13363;52.772;-3.890;2023-02-10T14:39:51;0.47;;;0.47;;
25435;SDS011;13363;52.772;-3.890;2023-02-10T14:42:20;0.37;;;0.37;;
25435;SDS011;13363;52.772;-3.890;2023-02-10T14:44:48;0.40;;;0.40;;
25435;SDS011;13363;52.772;-3.890;2023-02-10T14:50:46;0.73;;;0.50;;
25435;SDS011;13363;52.772;-3.890;2023-02-10T14:53:32;0.43;;;0.40;;
25435;SDS011;13363;52.772;-3.890;2023-02-10T14:55:59;0.57;;;0.57;;
25435;SDS011;13363;52.772;-3.890;2023-02-10T14:58:26;0.27;;;0.27;;
25435;SDS011;13363;52.772;-3.890;2023-02-10T15:00:53;2.67;;;0.70;;
25435;SDS011;13363;52.772;-3.890;2023-02-10T15:03:39;1.50;;;0.80;;
25435;SDS011;13363;52.772;-3.890;2023-02-10T15:06:05;1.17;;;0.83;;
25435;SDS011;13363;52.772;-3.890;2023-02-10T15:11:17;1.50;;;1.40;;
25435;SDS011;13363;52.772;-3.890;2023-02-10T15:14:18;2.23;;;1.30;;
25435;SDS011;13363;52.772;-3.890;2023-02-10T15:16:49;3.17;;;1.30;;
25435;SDS011;13363;52.772;-3.890;2023-02-10T15:19:18;1.90;;;1.10;;
25435;SDS011;13363;52.772;-3.890;2023-02-10T15:21:48;3.63;;;1.10;;
25435;SDS011;13363;52.772;-3.890;2023-02-10T15:24:18;0.97;;;0.93;;
25435;SDS011;13363;52.772;-3.890;2023-02-10T15:26:46;2.13;;;0.83;;
25435;SDS011;13363;52.772;-3.890;2023-02-10T15:29:13;3.10;;;0.80;;
25435;SDS011;13363;52.772;-3.890;2023-02-10T15:31:41;0.63;;;0.53;;
25435;SDS011;13363;52.772;-3.890;2023-02-10T15:34:20;1.43;;;0.30;;
25435;SDS011;13363;52.772;-3.890;2023-02-10T15:36:54;0.40;;;0.40;;
25435;SDS011;13363;52.772;-3.890;2023-02-10T15:39:29;17.97;;;1.97;;
25435;SDS011;13363;52.772;-3.890;2023-02-10T15:44:40;12.47;;;1.83;;
25435;SDS011;13363;52.772;-3.890;2023-02-10T15:49:57;59.63;;;6.30;;
25435;SDS011;13363;52.772;-3.890;2023-02-10T15:52:25;0.87;;;0.87;;
25435;SDS011;13363;52.772;-3.890;2023-02-10T15:55:01;1.10;;;0.80;;
25435;SDS011;13363;52.772;-3.890;2023-02-10T15:57:30;4.30;;;1.30;;
25435;SDS011;13363;52.772;-3.890;2023-02-10T15:59:56;9.33;;;1.60;;
25435;SDS011;13363;52.772;-3.890;2023-02-10T16:02:22;13.60;;;1.90;;
25435;SDS011;13363;52.772;-3.890;2023-02-10T16:04:52;7.43;;;2.00;;
25435;SDS011;13363;52.772;-3.890;2023-02-10T16:07:20;78.40;;;8.67;;
25435;SDS011;13363;52.772;-3.890;2023-02-10T16:09:48;21.33;;;3.30;;
25435;SDS011;13363;52.772;-3.890;2023-02-10T16:12:15;169.33;;;11.40;;
25435;SDS011;13363;52.772;-3.890;2023-02-10T16:14:41;31.50;;;5.53;;
25435;SDS011;13363;52.772;-3.890;2023-02-10T16:17:07;4.50;;;2.03;;
25435;SDS011;13363;52.772;-3.890;2023-02-10T16:19:34;199.30;;;13.67;;
25435;SDS011;13363;52.772;-3.890;2023-02-10T16:22:00;85.53;;;8.27;;
25435;SDS011;13363;52.772;-3.890;2023-02-10T16:24:26;129.87;;;10.23;;
25435;SDS011;13363;52.772;-3.890;2023-02-10T16:26:54;106.43;;;9.83;;
25435;SDS011;13363;52.772;-3.890;2023-02-10T16:29:22;10.97;;;3.47;;
25435;SDS011;13363;52.772;-3.890;2023-02-10T16:31:49;2.23;;;2.03;;
25435;SDS011;13363;52.772;-3.890;2023-02-10T16:34:16;20.93;;;4.23;;
25435;SDS011;13363;52.772;-3.890;2023-02-10T16:36:42;20.30;;;3.77;;
25435;SDS011;13363;52.772;-3.890;2023-02-10T16:39:14;9.17;;;3.40;;
25435;SDS011;13363;52.772;-3.890;2023-02-10T16:41:42;9.57;;;2.90;;
25435;SDS011;13363;52.772;-3.890;2023-02-10T16:44:09;14.07;;;2.90;;
25435;SDS011;13363;52.772;-3.890;2023-02-10T16:46:35;10.63;;;3.20;;
25435;SDS011;13363;52.772;-3.890;2023-02-10T16:49:02;3.97;;;2.70;;
25435;SDS011;13363;52.772;-3.890;2023-02-10T16:51:28;7.80;;;3.10;;
25435;SDS011;13363;52.772;-3.890;2023-02-10T16:53:54;9.80;;;3.67;;
25435;SDS011;13363;52.772;-3.890;2023-02-10T16:56:20;7.90;;;2.73;;